Time;durP1;ratioP1;P1;durP2;ratioP2;P2;SDS_P1;SDS_P2;PMS_P1;PMS_P2;Temp;Humidity;BMP_temperature;BMP_pressure;BME280_temperature;BME280_humidity;BME280_pressure;Samples;Min_cycle;Max_cycle;Signal;HPM_P1;HPM_P2
2021/10/29 00:01:12;;;;;;;0.00;0.00;;;14.50;71.50;;;;;;5053906;28;20028;-75
2021/10/29 00:03:38;;;;;;;0.00;0.00;;;14.50;71.40;;;;;;5053792;28;20057;-74
2021/10/29 00:06:04;;;;;;;0.00;0.00;;;14.60;71.30;;;;;;5054117;28;20467;-75
2021/10/29 00:08:30;;;;;;;0.00;0.00;;;14.60;71.20;;;;;;5053750;28;20036;-75
2021/10/29 00:10:55;;;;;;;0.00;0.00;;;14.70;71.10;;;;;;5053602;28;20029;-74
2021/10/29 00:13:21;;;;;;;0.00;0.00;;;14.70;71.00;;;;;;5056298;28;20530;-74
2021/10/29 00:15:47;;;;;;;0.00;0.00;;;14.80;70.80;;;;;;5057775;28;20103;-75
2021/10/29 00:18:13;;;;;;;0.00;0.00;;;14.80;70.60;;;;;;5056539;28;20060;-76
2021/10/29 00:20:39;;;;;;;0.00;0.00;;;14.80;70.70;;;;;;5057484;28;20061;-74
2021/10/29 00:23:05;;;;;;;0.00;0.00;;;14.80;70.80;;;;;;5057065;28;20021;-74
2021/10/29 00:25:31;;;;;;;0.00;0.00;;;14.80;70.90;;;;;;5057436;28;20029;-76
2021/10/29 00:27:57;;;;;;;0.00;0.00;;;14.70;70.90;;;;;;5057600;28;20025;-74
2021/10/29 00:30:23;;;;;;;0.00;0.00;;;14.70;71.00;;;;;;5057005;28;20437;-75
2021/10/29 00:32:48;;;;;;;0.00;0.00;;;14.70;71.00;;;;;;5057733;28;20366;-74
2021/10/29 00:35:14;;;;;;;0.00;0.00;;;14.70;71.00;;;;;;5073409;28;20037;-76
2021/10/29 00:37:40;;;;;;;0.00;0.00;;;14.80;71.10;;;;;;5057742;28;20047;-75
2021/10/29 00:40:10;;;;;;;0.00;0.00;;;14.70;71.20;;;;;;5057071;28;20092;-75
2021/10/29 00:42:36;;;;;;;0.00;0.00;;;14.70;71.30;;;;;;5057216;28;20031;-75
2021/10/29 00:45:04;;;;;;;0.00;0.00;;;14.70;71.60;;;;;;5072570;28;20040;-74
2021/10/29 00:47:30;;;;;;;0.00;0.00;;;14.80;71.50;;;;;;5057533;28;20113;-74
2021/10/29 00:49:55;;;;;;;0.00;0.00;;;14.80;71.40;;;;;;5058000;28;20064;-74
2021/10/29 00:52:21;;;;;;;0.00;0.00;;;14.80;71.30;;;;;;5057184;28;20044;-74
2021/10/29 00:54:47;;;;;;;0.00;0.00;;;14.90;71.30;;;;;;5057392;28;20036;-74
2021/10/29 00:57:13;;;;;;;0.00;0.00;;;14.90;71.20;;;;;;5056754;28;20036;-74
2021/10/29 00:59:39;;;;;;;0.00;0.00;;;14.90;71.20;;;;;;5057029;28;20457;-75
2021/10/29 01:02:05;;;;;;;0.00;0.00;;;14.90;71.10;;;;;;5056881;28;20029;-74
2021/10/29 01:04:30;;;;;;;0.00;0.00;;;14.90;71.40;;;;;;5055652;28;20030;-74
2021/10/29 01:06:57;;;;;;;0.00;0.00;;;15.00;71.10;;;;;;5056886;28;20032;-74
2021/10/29 01:09:23;;;;;;;0.00;0.00;;;15.00;71.10;;;;;;5072100;28;20029;-74
2021/10/29 01:11:49;;;;;;;0.00;0.00;;;15.00;71.10;;;;;;5057282;28;20042;-73
2021/10/29 01:14:15;;;;;;;0.00;0.00;;;15.00;71.00;;;;;;5056720;28;20104;-74
2021/10/29 01:16:41;;;;;;;0.00;0.00;;;15.00;71.00;;;;;;5072079;28;20422;-76
2021/10/29 01:19:08;;;;;;;0.00;0.00;;;15.00;70.90;;;;;;5056636;28;20108;-74
2021/10/29 01:21:34;;;;;;;0.00;0.00;;;15.10;71.00;;;;;;5071922;28;20488;-74
2021/10/29 01:24:00;;;;;;;0.00;0.00;;;15.10;71.00;;;;;;5056731;28;20076;-74
2021/10/29 01:26:26;;;;;;;0.00;0.00;;;15.10;70.90;;;;;;5055351;28;20476;-74
2021/10/29 01:28:52;;;;;;;0.00;0.00;;;15.10;71.00;;;;;;5056610;28;20031;-74
2021/10/29 01:31:17;;;;;;;0.00;0.00;;;15.00;70.90;;;;;;5056557;28;20025;-75
2021/10/29 01:33:44;;;;;;;0.00;0.00;;;15.10;71.00;;;;;;5056126;28;20508;-74
2021/10/29 01:36:10;;;;;;;0.00;0.00;;;15.10;71.00;;;;;;5056308;28;20095;-75
2021/10/29 01:38:38;;;;;;;0.00;0.00;;;15.10;71.00;;;;;;5055189;28;20427;-75
2021/10/29 01:41:05;;;;;;;0.00;0.00;;;15.00;70.90;;;;;;5056231;28;20028;-74
2021/10/29 01:43:37;;;;;;;0.00;0.00;;;15.10;71.60;;;;;;5055990;28;20029;-74
2021/10/29 01:46:02;;;;;;;0.00;0.00;;;15.10;70.90;;;;;;5056164;28;20457;-75
2021/10/29 01:48:28;;;;;;;0.00;0.00;;;15.10;70.90;;;;;;5056668;28;20074;-75
2021/10/29 01:50:54;;;;;;;0.00;0.00;;;15.00;70.70;;;;;;5054688;28;20032;-74
2021/10/29 01:53:21;;;;;;;0.00;0.00;;;15.10;70.70;;;;;;5055981;28;20032;-73
2021/10/29 01:55:48;;;;;;;0.00;0.00;;;15.00;70.70;;;;;;5056388;28;20346;-76
2021/10/29 01:58:14;;;;;;;0.00;0.00;;;14.90;70.80;;;;;;5071406;28;20079;-73
2021/10/29 02:00:40;;;;;;;0.00;0.00;;;14.90;70.90;;;;;;5071238;28;20113;-74
2021/10/29 02:03:06;;;;;;;0.00;0.00;;;14.80;71.10;;;;;;5055810;28;20114;-74
2021/10/29 02:05:32;;;;;;;0.00;0.00;;;14.70;71.20;;;;;;5056021;28;20029;-76
2021/10/29 02:07:57;;;;;;;0.00;0.00;;;14.70;71.40;;;;;;5054543;28;20029;-74
2021/10/29 02:10:23;;;;;;;0.00;0.00;;;14.70;71.60;;;;;;5056213;28;20082;-74
2021/10/29 02:12:49;;;;;;;0.00;0.00;;;14.70;71.70;;;;;;5055706;28;20032;-74
2021/10/29 02:15:14;;;;;;;0.00;0.00;;;14.60;71.70;;;;;;5055345;28;20020;-75
2021/10/29 02:17:40;;;;;;;0.00;0.00;;;14.70;71.90;;;;;;5055517;28;20059;-75
2021/10/29 02:20:07;;;;;;;0.00;0.00;;;14.70;71.90;;;;;;5071431;28;20032;-74
2021/10/29 02:22:33;;;;;;;0.00;0.00;;;14.70;71.90;;;;;;5055652;28;20057;-74
2021/10/29 02:24:59;;;;;;;0.00;0.00;;;14.70;71.90;;;;;;5056455;28;20099;-74
2021/10/29 02:27:24;;;;;;;0.00;0.00;;;14.60;71.90;;;;;;5055024;28;20029;-75
2021/10/29 02:29:50;;;;;;;0.00;0.00;;;14.60;71.90;;;;;;5055109;28;20033;-74
2021/10/29 02:32:16;;;;;;;0.00;0.00;;;14.60;72.00;;;;;;5054486;28;20025;-74
2021/10/29 02:34:41;;;;;;;0.00;0.00;;;14.50;72.10;;;;;;5054224;28;20032;-73
2021/10/29 02:37:07;;;;;;;0.00;0.00;;;14.50;72.30;;;;;;5055192;28;20420;-74
2021/10/29 02:39:33;;;;;;;0.00;0.00;;;14.50;72.50;;;;;;5055933;28;20031;-74
2021/10/29 02:42:04;;;;;;;0.00;0.00;;;14.50;72.60;;;;;;5055306;28;20373;-74
2021/10/29 02:44:30;;;;;;;0.00;0.00;;;14.50;72.70;;;;;;5055214;28;20025;-73
2021/10/29 02:46:56;;;;;;;0.00;0.00;;;14.50;72.70;;;;;;5055136;28;20029;-73
2021/10/29 02:49:22;;;;;;;0.00;0.00;;;14.50;72.70;;;;;;5055019;28;20111;-74
2021/10/29 02:51:47;;;;;;;0.00;0.00;;;14.50;72.70;;;;;;5054837;28;20362;-73
2021/10/29 02:54:13;;;;;;;0.00;0.00;;;14.50;72.80;;;;;;5055137;28;20029;-74
2021/10/29 02:56:39;;;;;;;0.00;0.00;;;14.50;72.90;;;;;;5054764;28;20033;-73
2021/10/29 02:59:04;;;;;;;0.00;0.00;;;14.50;72.80;;;;;;5054617;28;20020;-73
2021/10/29 03:01:30;;;;;;;0.00;0.00;;;14.50;72.90;;;;;;5053421;28;20461;-73
2021/10/29 03:03:56;;;;;;;0.00;0.00;;;14.50;72.90;;;;;;5054347;28;20064;-74
2021/10/29 03:06:22;;;;;;;0.00;0.00;;;14.40;72.80;;;;;;5054316;28;20090;-74
2021/10/29 03:08:48;;;;;;;0.00;0.00;;;14.40;72.80;;;;;;5053205;28;20025;-73
2021/10/29 03:11:13;;;;;;;0.00;0.00;;;14.40;72.90;;;;;;5053179;28;20033;-74
2021/10/29 03:13:39;;;;;;;0.00;0.00;;;14.30;72.90;;;;;;5054462;28;20025;-74
2021/10/29 03:16:05;;;;;;;0.00;0.00;;;14.30;73.00;;;;;;5054628;28;20028;-75
2021/10/29 03:18:31;;;;;;;0.00;0.00;;;14.20;73.00;;;;;;5054371;28;20108;-73
2021/10/29 03:20:57;;;;;;;0.00;0.00;;;14.20;73.20;;;;;;5054002;28;20032;-73
2021/10/29 03:23:23;;;;;;;0.00;0.00;;;14.20;73.40;;;;;;5052694;28;20219;-73
2021/10/29 03:25:48;;;;;;;0.00;0.00;;;14.20;73.40;;;;;;5069480;28;20474;-74
2021/10/29 03:28:14;;;;;;;0.00;0.00;;;14.20;73.50;;;;;;5054106;28;20025;-74
2021/10/29 03:30:41;;;;;;;0.00;0.00;;;14.20;73.60;;;;;;5054332;28;20033;-74
2021/10/29 03:33:07;;;;;;;0.00;0.00;;;14.20;73.60;;;;;;5054084;28;20473;-74
2021/10/29 03:35:33;;;;;;;0.00;0.00;;;14.10;73.60;;;;;;5053974;28;20027;-74
2021/10/29 03:38:13;;;;;;;0.00;0.00;;;14.10;73.70;;;;;;5054747;28;20040;-74
2021/10/29 03:43:16;;;;;;;0.00;0.00;;;14.00;73.90;;;;;;5054068;28;20036;-75
2021/10/29 03:45:50;;;;;;;0.00;0.00;;;14.00;74.10;;;;;;5053876;28;20029;-75
2021/10/29 03:48:18;;;;;;;0.00;0.00;;;13.90;74.00;;;;;;5054151;28;20455;-74
2021/10/29 03:50:59;;;;;;;0.00;0.00;;;13.90;74.10;;;;;;5053826;28;20060;-74
2021/10/29 03:53:32;;;;;;;0.00;0.00;;;13.80;74.20;;;;;;5054369;28;20056;-74
2021/10/29 03:55:59;;;;;;;0.00;0.00;;;13.70;74.30;;;;;;5053583;28;20025;-74
2021/10/29 03:58:25;;;;;;;0.00;0.00;;;13.60;74.50;;;;;;5052549;28;20090;-74
2021/10/29 04:00:52;;;;;;;0.00;0.00;;;13.50;74.70;;;;;;5053705;28;20511;-74
2021/10/29 04:03:18;;;;;;;0.00;0.00;;;13.40;74.90;;;;;;5052484;28;20028;-75
2021/10/29 04:05:44;;;;;;;0.00;0.00;;;13.30;75.10;;;;;;5053986;28;20119;-74
2021/10/29 04:08:10;;;;;;;0.00;0.00;;;13.20;75.40;;;;;;5053886;28;20434;-75
2021/10/29 04:10:41;;;;;;;0.00;0.00;;;13.10;75.60;;;;;;5053614;28;20052;-74
2021/10/29 04:13:10;;;;;;;0.00;0.00;;;13.00;75.80;;;;;;5069517;28;20082;-74
2021/10/29 04:15:37;;;;;;;0.00;0.00;;;13.00;76.10;;;;;;5052340;28;20025;-74
2021/10/29 04:18:03;;;;;;;0.00;0.00;;;12.90;76.20;;;;;;5053562;28;20017;-74
2021/10/29 04:20:30;;;;;;;0.00;0.00;;;12.80;76.50;;;;;;5053578;28;20025;-74
2021/10/29 04:22:55;;;;;;;0.00;0.00;;;12.80;76.80;;;;;;5053324;28;20037;-73
2021/10/29 04:25:21;;;;;;;0.00;0.00;;;12.70;77.10;;;;;;5054074;28;20049;-73
2021/10/29 04:28:04;;;;;;;0.00;0.00;;;12.70;77.40;;;;;;5053441;28;20062;-74
2021/10/29 04:30:30;;;;;;;0.00;0.00;;;12.70;77.60;;;;;;5053324;28;20461;-76
2021/10/29 04:32:57;;;;;;;0.00;0.00;;;12.80;77.60;;;;;;5053051;28;20033;-74
2021/10/29 04:35:27;;;;;;;0.00;0.00;;;12.80;77.50;;;;;;5053349;28;20025;-74
2021/10/29 04:37:52;;;;;;;0.00;0.00;;;12.80;77.50;;;;;;5053348;28;20048;-74
2021/10/29 04:40:18;;;;;;;0.00;0.00;;;12.80;77.60;;;;;;5053380;28;20520;-74
2021/10/29 04:42:44;;;;;;;0.00;0.00;;;12.90;77.80;;;;;;5069431;28;20021;-74
2021/10/29 04:45:10;;;;;;;0.00;0.00;;;13.00;77.90;;;;;;5053734;28;20099;-74
2021/10/29 04:47:36;;;;;;;0.00;0.00;;;13.10;78.00;;;;;;5053501;28;20446;-74
2021/10/29 04:50:04;;;;;;;0.00;0.00;;;13.10;77.80;;;;;;5052868;28;20112;-74
2021/10/29 04:52:29;;;;;;;0.00;0.00;;;13.20;77.70;;;;;;5053255;28;20080;-75
2021/10/29 04:54:56;;;;;;;0.00;0.00;;;13.30;77.50;;;;;;5053223;28;20434;-73
2021/10/29 04:57:22;;;;;;;0.00;0.00;;;13.40;77.40;;;;;;5051636;28;20032;-74
2021/10/29 04:59:48;;;;;;;0.00;0.00;;;13.40;77.20;;;;;;5056311;28;20025;-74
2021/10/29 05:02:13;;;;;;;0.00;0.00;;;13.50;77.20;;;;;;5056406;28;20061;-74
2021/10/29 05:04:40;;;;;;;0.00;0.00;;;13.50;77.10;;;;;;5056808;28;20025;-75
2021/10/29 05:07:06;;;;;;;0.00;0.00;;;13.60;77.10;;;;;;5057072;28;20051;-74
2021/10/29 05:09:31;;;;;;;0.00;0.00;;;13.60;77.00;;;;;;5056479;28;20431;-77
2021/10/29 05:11:57;;;;;;;0.00;0.00;;;13.70;76.90;;;;;;5056302;28;20516;-75
2021/10/29 05:14:23;;;;;;;0.00;0.00;;;13.80;76.80;;;;;;5056773;28;20358;-75
2021/10/29 05:16:50;;;;;;;0.00;0.00;;;13.80;76.60;;;;;;5057120;28;20077;-74
2021/10/29 05:19:16;;;;;;;0.00;0.00;;;13.90;76.50;;;;;;5056605;28;20028;-74
2021/10/29 05:21:42;;;;;;;0.00;0.00;;;13.90;76.40;;;;;;5056179;28;20473;-74
2021/10/29 05:24:08;;;;;;;0.00;0.00;;;13.90;76.40;;;;;;5056514;28;20141;-74
2021/10/29 05:26:34;;;;;;;0.00;0.00;;;13.90;76.30;;;;;;5056443;28;20441;-75
2021/10/29 05:28:59;;;;;;;0.00;0.00;;;14.00;76.40;;;;;;5056110;28;20052;-75
2021/10/29 05:31:25;;;;;;;0.13;0.00;;;14.00;76.30;;;;;;5056516;28;20354;-74
2021/10/29 05:33:51;;;;;;;0.00;0.00;;;14.00;76.30;;;;;;5054957;28;20037;-76
2021/10/29 05:36:17;;;;;;;0.00;0.00;;;14.00;76.20;;;;;;5056227;28;20029;-75
2021/10/29 05:38:43;;;;;;;0.00;0.00;;;14.10;76.30;;;;;;5055860;28;20053;-76
2021/10/29 05:41:09;;;;;;;0.00;0.00;;;14.10;76.20;;;;;;5056131;28;20095;-75
2021/10/29 05:43:35;;;;;;;0.15;0.10;;;14.10;76.40;;;;;;5056139;28;20120;-75
2021/10/29 05:46:00;;;;;;;0.00;0.00;;;14.20;76.20;;;;;;5056116;28;20060;-74
2021/10/29 05:48:26;;;;;;;0.10;0.10;;;14.20;76.20;;;;;;5056057;28;20027;-75
2021/10/29 05:50:54;;;;;;;0.45;0.13;;;14.20;76.20;;;;;;5055732;28;20473;-74
2021/10/29 05:55:54;;;;;;;0.00;0.00;;;14.30;76.10;;;;;;5055788;28;20032;-73
2021/10/29 05:58:20;;;;;;;0.30;0.17;;;14.30;76.00;;;;;;5055549;28;20481;-74
2021/10/29 06:00:46;;;;;;;0.10;0.10;;;14.30;75.90;;;;;;5055832;28;20040;-75
2021/10/29 06:03:13;;;;;;;0.43;0.32;;;14.40;76.00;;;;;;5055434;28;20116;-75
2021/10/29 06:05:39;;;;;;;1.38;0.82;;;14.40;75.90;;;;;;5055690;28;20096;-74
2021/10/29 06:08:05;;;;;;;0.10;0.10;;;14.50;75.80;;;;;;5055795;28;20128;-75
2021/10/29 06:10:31;;;;;;;0.60;0.20;;;14.50;75.70;;;;;;5054663;28;20497;-75
2021/10/29 06:12:57;;;;;;;0.03;0.00;;;14.40;75.60;;;;;;5055539;28;20029;-76
2021/10/29 06:15:23;;;;;;;0.10;0.10;;;14.50;76.30;;;;;;5055399;28;20029;-75
2021/10/29 06:17:49;;;;;;;0.38;0.25;;;14.50;75.70;;;;;;5055659;28;20017;-75
2021/10/29 06:20:16;;;;;;;0.43;0.20;;;14.60;75.60;;;;;;5054708;28;20029;-75
2021/10/29 06:22:48;;;;;;;0.10;0.10;;;14.60;75.50;;;;;;5054265;28;20128;-76
2021/10/29 06:25:18;;;;;;;0.43;0.40;;;14.60;75.50;;;;;;5055822;28;20424;-76
2021/10/29 06:30:29;;;;;;;0.52;0.38;;;14.70;75.40;;;;;;5055721;28;20079;-75
2021/10/29 06:32:55;;;;;;;1.15;0.70;;;14.60;75.30;;;;;;5055293;28;20068;-75
2021/10/29 06:35:22;;;;;;;0.43;0.30;;;14.70;75.30;;;;;;5070198;28;20045;-75
2021/10/29 06:37:48;;;;;;;1.10;0.68;;;14.60;75.30;;;;;;5055147;28;20031;-75
2021/10/29 06:40:16;;;;;;;0.20;0.15;;;14.70;75.30;;;;;;5055143;28;20028;-75
2021/10/29 06:42:51;;;;;;;0.47;0.20;;;14.70;75.20;;;;;;5054194;28;20032;-73
2021/10/29 06:47:49;;;;;;;0.10;0.05;;;14.80;75.10;;;;;;5054824;28;20423;-75
2021/10/29 07:01:17;;;;;;;0.00;0.00;;;14.90;74.50;;;;;;5054669;28;20253;-76
2021/10/29 07:12:38;;;;;;;0.00;0.00;;;15.00;74.20;;;;;;5054506;28;20281;-77
2021/10/29 07:42:27;;;;;;;0.00;0.00;;;15.50;72.80;;;;;;5053933;28;20400;-76
2021/10/29 07:44:53;;;;;;;0.00;0.00;;;15.50;72.60;;;;;;5053926;28;20445;-76
2021/10/29 07:47:20;;;;;;;0.00;0.00;;;15.60;72.50;;;;;;5054067;28;20036;-74
2021/10/29 07:49:46;;;;;;;0.00;0.00;;;15.70;72.40;;;;;;5053579;28;20031;-75
2021/10/29 07:52:12;;;;;;;0.20;0.00;;;15.70;72.20;;;;;;5053815;28;20037;-75
2021/10/29 07:54:44;;;;;;;0.10;0.00;;;15.80;72.00;;;;;;5054129;28;20025;-74
2021/10/29 07:57:10;;;;;;;0.25;0.10;;;15.70;71.70;;;;;;5069110;28;20029;-75
2021/10/29 07:59:36;;;;;;;0.03;0.03;;;15.70;71.80;;;;;;5053441;28;20066;-75
2021/10/29 08:02:02;;;;;;;0.10;0.08;;;15.70;71.50;;;;;;5069278;28;20029;-76
2021/10/29 08:04:28;;;;;;;0.00;0.00;;;15.70;71.60;;;;;;5053795;28;20017;-76
2021/10/29 08:06:53;;;;;;;0.00;0.00;;;15.70;71.40;;;;;;5053589;28;20071;-77
2021/10/29 08:09:21;;;;;;;0.00;0.00;;;15.80;71.40;;;;;;5053654;28;20028;-78
2021/10/29 08:11:48;;;;;;;0.00;0.00;;;15.80;71.30;;;;;;5053508;28;20040;-74
2021/10/29 08:14:15;;;;;;;0.00;0.00;;;15.80;71.30;;;;;;5069497;28;20025;-74
2021/10/29 08:16:41;;;;;;;0.10;0.00;;;15.80;71.30;;;;;;5053551;28;20032;-77
2021/10/29 08:19:07;;;;;;;0.00;0.00;;;15.90;71.20;;;;;;5053690;28;20021;-75
2021/10/29 08:21:32;;;;;;;0.00;0.00;;;15.90;70.90;;;;;;5053594;28;20079;-76
2021/10/29 08:24:00;;;;;;;0.00;0.00;;;15.90;70.90;;;;;;5052383;28;20053;-76
2021/10/29 08:26:25;;;;;;;0.00;0.00;;;16.00;71.00;;;;;;5053407;28;20071;-76
2021/10/29 08:28:52;;;;;;;0.00;0.00;;;16.00;70.90;;;;;;5069039;28;20029;-76
2021/10/29 08:31:18;;;;;;;0.00;0.00;;;16.10;70.80;;;;;;5051199;28;20055;-74
2021/10/29 08:33:44;;;;;;;0.15;0.15;;;16.10;70.50;;;;;;5054649;28;20029;-75
2021/10/29 08:36:10;;;;;;;0.00;0.00;;;16.20;70.00;;;;;;5057186;28;20456;-75
2021/10/29 08:38:36;;;;;;;0.00;0.00;;;16.30;70.40;;;;;;5058334;28;20433;-75
2021/10/29 08:41:01;;;;;;;0.20;0.10;;;16.30;69.70;;;;;;5056947;28;20060;-76
2021/10/29 08:43:27;;;;;;;0.00;0.00;;;16.30;69.60;;;;;;5057314;28;20025;-75
2021/10/29 08:45:53;;;;;;;0.00;0.00;;;16.30;69.60;;;;;;5057274;28;20021;-75
2021/10/29 08:48:20;;;;;;;0.00;0.00;;;16.20;69.50;;;;;;5072658;28;20035;-75
2021/10/29 08:50:46;;;;;;;0.00;0.00;;;16.20;69.40;;;;;;5056771;28;20033;-75
2021/10/29 08:53:12;;;;;;;0.00;0.00;;;16.30;69.30;;;;;;5057077;28;20517;-75
2021/10/29 08:55:38;;;;;;;0.00;0.00;;;16.20;69.20;;;;;;5057503;28;20025;-74
2021/10/29 08:58:07;;;;;;;0.00;0.00;;;16.20;69.00;;;;;;5055870;28;20556;-75
2021/10/29 09:00:39;;;;;;;0.00;0.00;;;16.30;69.00;;;;;;5057059;28;20461;-74
2021/10/29 09:03:12;;;;;;;0.20;0.00;;;16.30;69.00;;;;;;5056926;28;20373;-76
2021/10/29 09:05:58;;;;;;;0.00;0.00;;;16.30;69.00;;;;;;5055489;28;20047;-75
2021/10/29 09:08:49;;;;;;;0.00;0.00;;;16.40;68.80;;;;;;5056250;28;20032;-75
2021/10/29 09:16:03;;;;;;;0.00;0.00;;;16.40;68.70;;;;;;5057157;28;20055;-76
2021/10/29 09:34:03;;;;;;;0.00;0.00;;;16.30;68.60;;;;;;5056387;28;20025;-75
2021/10/29 09:36:44;;;;;;;0.00;0.00;;;16.30;68.70;;;;;;5056698;28;20053;-76
2021/10/29 09:39:22;;;;;;;0.00;0.00;;;16.30;68.70;;;;;;5056565;28;20025;-75
2021/10/29 09:42:03;;;;;;;0.00;0.00;;;16.30;68.70;;;;;;5056179;28;20078;-76
2021/10/29 09:44:47;;;;;;;0.00;0.00;;;16.30;68.70;;;;;;5055753;28;20029;-73
2021/10/29 09:47:16;;;;;;;0.00;0.00;;;16.30;68.70;;;;;;5071568;28;20112;-76
2021/10/29 09:50:03;;;;;;;0.00;0.00;;;16.40;68.60;;;;;;5054702;28;20060;-75
2021/10/29 09:57:30;;;;;;;0.00;0.00;;;16.50;68.00;;;;;;5055888;28;20028;-74
2021/10/29 09:59:57;;;;;;;0.00;0.00;;;16.50;67.80;;;;;;5055424;28;20032;-73
2021/10/29 10:02:25;;;;;;;0.00;0.00;;;16.50;67.90;;;;;;5054686;28;20020;-76
2021/10/29 10:04:52;;;;;;;0.00;0.00;;;16.50;67.90;;;;;;5071171;28;20028;-76
2021/10/29 10:07:25;;;;;;;0.00;0.00;;;16.50;67.90;;;;;;5054479;28;20490;-75
2021/10/29 10:09:59;;;;;;;0.00;0.00;;;16.50;67.70;;;;;;5055582;28;20025;-75
2021/10/29 10:12:31;;;;;;;0.00;0.00;;;16.60;67.70;;;;;;5055252;28;20389;-74
2021/10/29 10:15:00;;;;;;;0.00;0.00;;;16.70;67.60;;;;;;5055511;28;20116;-74
2021/10/29 10:17:27;;;;;;;0.00;0.00;;;16.70;67.30;;;;;;5055178;28;20025;-75
2021/10/29 10:19:55;;;;;;;0.00;0.00;;;16.80;67.20;;;;;;5055107;28;20059;-76
2021/10/29 10:22:24;;;;;;;0.00;0.00;;;16.90;67.00;;;;;;5071643;28;20039;-75
2021/10/29 10:24:58;;;;;;;0.00;0.00;;;16.90;66.70;;;;;;5056086;28;20063;-80
2021/10/29 10:30:25;;;;;;;0.00;0.00;;;17.10;66.50;;;;;;5055369;28;20176;-74
2021/10/29 10:46:56;;;;;;;0.00;0.00;;;17.10;65.50;;;;;;5054851;28;20526;-75
2021/10/29 10:49:39;;;;;;;0.00;0.00;;;17.00;65.60;;;;;;5055048;28;20029;-75
2021/10/29 10:55:11;;;;;;;;;;;17.00;65.80;;;;;;5050010;28;20037;-76
2021/10/29 11:05:37;;;;;;;0.00;0.00;;;17.10;65.70;;;;;;5054887;28;20025;-75
2021/10/29 11:11:04;;;;;;;0.00;0.00;;;17.20;65.50;;;;;;5054135;28;20037;-75
2021/10/29 11:13:43;;;;;;;0.00;0.00;;;17.30;65.50;;;;;;5053962;28;20025;-76
2021/10/29 11:16:27;;;;;;;0.00;0.00;;;17.30;65.30;;;;;;5054442;28;20028;-74
2021/10/29 11:19:04;;;;;;;0.00;0.00;;;17.30;65.30;;;;;;5054311;28;20032;-75
2021/10/29 11:21:38;;;;;;;0.00;0.00;;;17.40;65.20;;;;;;5054257;28;20171;-75
2021/10/29 11:24:09;;;;;;;0.00;0.00;;;17.40;65.10;;;;;;5053743;28;20394;-75
2021/10/29 11:26:44;;;;;;;0.00;0.00;;;17.40;65.00;;;;;;5054616;28;20416;-76
2021/10/29 11:29:11;;;;;;;0.00;0.00;;;17.50;64.90;;;;;;5053859;28;20389;-75
2021/10/29 11:31:48;;;;;;;0.00;0.00;;;17.60;65.40;;;;;;5054319;28;20029;-74
2021/10/29 11:34:16;;;;;;;0.00;0.00;;;17.70;64.40;;;;;;5054142;28;20028;-76
2021/10/29 11:36:51;;;;;;;0.00;0.00;;;17.80;64.40;;;;;;5054078;28;20021;-77
2021/10/29 11:39:19;;;;;;;0.00;0.00;;;17.80;64.10;;;;;;5054317;28;20032;-75
2021/10/29 11:41:47;;;;;;;0.00;0.00;;;17.80;63.90;;;;;;5053991;28;20036;-77
2021/10/29 11:44:37;;;;;;;0.00;0.00;;;17.80;63.70;;;;;;5054348;28;20400;-77
2021/10/29 11:47:04;;;;;;;0.00;0.00;;;17.80;63.70;;;;;;5053817;28;20525;-75
2021/10/29 11:49:30;;;;;;;0.85;0.10;;;17.70;63.70;;;;;;5052970;28;20036;-75
2021/10/29 11:52:00;;;;;;;0.00;0.00;;;17.70;63.80;;;;;;5054317;28;20029;-75
2021/10/29 11:54:33;;;;;;;0.08;0.05;;;17.50;63.70;;;;;;5053834;28;20076;-75
2021/10/29 12:00:08;;;;;;;0.08;0.08;;;17.40;63.70;;;;;;5053810;28;20079;-75
2021/10/29 12:08:10;;;;;;;0.00;0.00;;;17.00;64.30;;;;;;5052470;28;20028;-74
2021/10/29 12:10:43;;;;;;;0.00;0.00;;;17.00;64.40;;;;;;5053468;28;20033;-74
2021/10/29 12:13:09;;;;;;;0.00;0.00;;;17.10;64.50;;;;;;5052293;28;20362;-75
2021/10/29 12:15:35;;;;;;;0.20;0.10;;;17.10;64.50;;;;;;5068978;28;20036;-75
2021/10/29 12:18:06;;;;;;;0.00;0.00;;;17.00;64.40;;;;;;5053464;28;20035;-77
2021/10/29 12:20:35;;;;;;;0.00;0.00;;;16.90;64.50;;;;;;5053759;28;20033;-76
2021/10/29 12:23:09;;;;;;;0.03;0.03;;;16.80;64.70;;;;;;5053714;28;20036;-75
2021/10/29 12:28:12;;;;;;;0.00;0.00;;;16.60;65.90;;;;;;5053414;28;20364;-74
2021/10/29 12:30:50;;;;;;;0.00;0.00;;;16.50;65.20;;;;;;5053668;28;20556;-75
2021/10/29 12:33:28;;;;;;;0.10;0.10;;;16.50;65.40;;;;;;5052845;28;20021;-75
2021/10/29 13:03:11;;;;;;;;;;;15.50;67.10;;;;;;5053906;28;20101;-75
2021/10/29 13:05:37;;;;;;;0.30;0.10;;;15.50;67.00;;;;;;5053199;28;20034;-75
2021/10/29 13:08:19;;;;;;;0.00;0.00;;;15.40;66.80;;;;;;5052652;28;20025;-74
2021/10/29 13:10:50;;;;;;;0.00;0.00;;;15.30;67.30;;;;;;5068521;28;20029;-75
2021/10/29 13:13:25;;;;;;;0.00;0.00;;;15.20;67.50;;;;;;5053134;28;20021;-76
2021/10/29 13:15:54;;;;;;;0.10;0.08;;;15.10;67.50;;;;;;5052916;28;20040;-74
2021/10/29 13:18:40;;;;;;;0.13;0.10;;;14.90;67.80;;;;;;5051872;28;20040;-75
2021/10/29 13:36:52;;;;;;;0.60;0.40;;;14.50;68.50;;;;;;5056471;28;20040;-77
2021/10/29 13:53:14;;;;;;;1.25;0.57;;;13.70;72.80;;;;;;5055856;28;20350;-76
2021/10/29 14:33:09;;;;;;;0.20;0.10;;;13.40;75.00;;;;;;5054527;28;20131;-75
2021/10/29 14:35:47;;;;;;;0.47;0.45;;;13.30;75.20;;;;;;5054246;28;20055;-75
2021/10/29 14:41:07;;;;;;;1.07;0.80;;;13.30;75.30;;;;;;5055196;28;20036;-76
2021/10/29 14:43:40;;;;;;;0.10;0.00;;;13.20;75.50;;;;;;5055603;28;20511;-76
2021/10/29 14:46:29;;;;;;;0.50;0.20;;;13.20;75.60;;;;;;5053801;28;20033;-76
2021/10/29 14:48:57;;;;;;;0.08;0.08;;;13.20;75.70;;;;;;5055658;28;20033;-75
2021/10/29 15:29:26;;;;;;;0.40;0.15;;;12.60;77.80;;;;;;5053120;28;20040;-77
2021/10/29 15:32:04;;;;;;;0.80;0.50;;;12.50;77.90;;;;;;5051493;28;20096;-77
2021/10/29 15:45:34;;;;;;;2.63;1.63;;;12.40;78.30;;;;;;5053225;28;20043;-76
2021/10/29 15:48:06;;;;;;;2.60;1.58;;;12.30;78.30;;;;;;5054241;28;20067;-77
2021/10/29 15:50:34;;;;;;;1.58;0.88;;;12.20;78.50;;;;;;5053268;28;20033;-77
2021/10/29 15:53:07;;;;;;;0.55;0.52;;;12.10;78.70;;;;;;5054163;28;20223;-74
2021/10/29 15:58:16;;;;;;;1.13;1.00;;;12.10;79.30;;;;;;5053462;28;20025;-75
2021/10/29 16:03:31;;;;;;;2.38;1.20;;;12.00;79.10;;;;;;5054024;28;20078;-75
2021/10/29 16:17:14;;;;;;;1.80;1.70;;;11.60;80.90;;;;;;5053556;28;20450;-76
2021/10/29 16:19:44;;;;;;;1.83;1.42;;;11.50;81.80;;;;;;5053190;28;20458;-77
2021/10/29 16:22:20;;;;;;;1.63;1.40;;;11.50;81.50;;;;;;5053173;28;20028;-76
2021/10/29 16:27:57;;;;;;;2.15;1.35;;;11.40;81.60;;;;;;5048374;28;20179;-77
2021/10/29 16:30:24;;;;;;;2.53;1.90;;;11.40;81.20;;;;;;5053677;28;20116;-77
2021/10/29 16:35:34;;;;;;;0.82;0.40;;;11.30;81.30;;;;;;5053103;28;20036;-74
2021/10/29 16:38:01;;;;;;;2.22;1.17;;;11.30;81.60;;;;;;5053167;28;20083;-75
2021/10/29 16:40:27;;;;;;;1.58;1.25;;;11.40;81.30;;;;;;5052999;28;20021;-76
2021/10/29 16:42:53;;;;;;;2.53;1.60;;;11.30;80.80;;;;;;5052105;28;20037;-77
2021/10/29 16:45:22;;;;;;;2.47;1.35;;;11.20;80.80;;;;;;5053574;28;20191;-75
2021/10/29 16:47:48;;;;;;;2.83;2.00;;;11.20;81.10;;;;;;5053016;28;20037;-75
2021/10/29 16:50:17;;;;;;;2.65;1.73;;;11.10;81.20;;;;;;5053298;28;20110;-76
2021/10/29 16:52:44;;;;;;;2.47;2.33;;;11.10;81.20;;;;;;5053257;28;20029;-76
2021/10/29 16:55:11;;;;;;;1.00;0.80;;;11.00;82.00;;;;;;5055158;28;20041;-75
2021/10/29 16:57:39;;;;;;;1.25;0.85;;;10.90;82.20;;;;;;5056989;28;20029;-77
2021/10/29 17:00:07;;;;;;;3.25;2.15;;;10.90;82.30;;;;;;5056565;28;20111;-75
2021/10/29 17:02:32;;;;;;;3.40;2.30;;;10.90;82.40;;;;;;5057023;28;20033;-75
2021/10/29 17:05:01;;;;;;;1.80;1.23;;;10.80;82.30;;;;;;5072386;28;20020;-75
2021/10/29 17:07:27;;;;;;;3.03;1.60;;;10.80;82.50;;;;;;5071764;28;20164;-75
2021/10/29 17:09:53;;;;;;;4.07;2.38;;;10.80;82.50;;;;;;5056367;28;20105;-76
2021/10/29 17:12:21;;;;;;;2.15;1.00;;;10.80;82.60;;;;;;5072097;28;20465;-75
2021/10/29 17:14:48;;;;;;;3.13;2.33;;;10.80;82.70;;;;;;5056443;28;20385;-75
2021/10/29 17:17:14;;;;;;;1.52;0.90;;;10.80;82.60;;;;;;5056497;28;20496;-76
2021/10/29 17:19:39;;;;;;;3.00;1.33;;;10.80;82.70;;;;;;5056794;28;20056;-76
2021/10/29 17:22:06;;;;;;;1.75;1.60;;;10.90;82.90;;;;;;5056648;28;20113;-76
2021/10/29 17:24:33;;;;;;;2.95;1.80;;;10.90;82.90;;;;;;5056786;28;20049;-75
2021/10/29 17:26:59;;;;;;;1.63;0.93;;;10.90;82.50;;;;;;5056743;28;20094;-75
2021/10/29 17:29:27;;;;;;;1.73;1.13;;;10.90;82.50;;;;;;5055998;28;20033;-75
2021/10/29 17:31:53;;;;;;;1.20;0.75;;;10.90;82.80;;;;;;5071763;28;20124;-74
2021/10/29 17:34:19;;;;;;;0.20;0.20;;;10.90;82.50;;;;;;5056568;28;20029;-76
2021/10/29 17:36:45;;;;;;;0.63;0.40;;;11.00;82.80;;;;;;5056278;28;20027;-76
2021/10/29 17:39:32;;;;;;;2.17;1.13;;;11.00;82.90;;;;;;5071482;28;20507;-75
2021/10/29 17:42:43;;;;;;;;;;;;;;;;;;;;;
2021/10/29 17:48:23;;;;;;;1.17;0.68;;;11.20;82.10;;;;;;5054771;28;20398;-76
2021/10/29 17:51:37;;;;;;;;;;;;;;;;;;;;;
2021/10/29 17:53:52;;;;;;;3.42;1.98;;;11.20;82.10;;;;;;5054251;28;20044;-75